sensor_id;sensor_type;location;lat;lon;timestamp;P1;durP1;ratioP1;P2;durP2;ratioP2
22774;SDS011;11554;51.106;3.684;2023-08-31T00:00:00;4.90;;;3.10;;
22774;SDS011;11554;51.106;3.684;2023-08-31T00:05:00;4.90;;;3.10;;
22774;SDS011;11554;51.106;3.684;2023-08-31T00:10:00;5.80;;;3.10;;
22774;SDS011;11554;51.106;3.684;2023-08-31T00:15:01;5.80;;;3.10;;
22774;SDS011;11554;51.106;3.684;2023-08-31T00:20:00;7.30;;;3.40;;
22774;SDS011;11554;51.106;3.684;2023-08-31T00:25:00;7.30;;;3.40;;
22774;SDS011;11554;51.106;3.684;2023-08-31T00:30:00;6.60;;;3.50;;
22774;SDS011;11554;51.106;3.684;2023-08-31T00:35:00;6.60;;;3.50;;
22774;SDS011;11554;51.106;3.684;2023-08-31T00:40:00;7.60;;;3.90;;
22774;SDS011;11554;51.106;3.684;2023-08-31T00:45:00;7.60;;;3.90;;
22774;SDS011;11554;51.106;3.684;2023-08-31T00:50:00;7.30;;;3.90;;
22774;SDS011;11554;51.106;3.684;2023-08-31T00:55:02;7.30;;;3.90;;
22774;SDS011;11554;51.106;3.684;2023-08-31T01:00:00;8.00;;;4.30;;
22774;SDS011;11554;51.106;3.684;2023-08-31T01:05:11;8.00;;;4.30;;
22774;SDS011;11554;51.106;3.684;2023-08-31T01:10:06;9.90;;;4.60;;
22774;SDS011;11554;51.106;3.684;2023-08-31T01:15:04;9.90;;;4.60;;
22774;SDS011;11554;51.106;3.684;2023-08-31T01:20:01;7.30;;;4.30;;
22774;SDS011;11554;51.106;3.684;2023-08-31T01:25:01;7.30;;;4.30;;
22774;SDS011;11554;51.106;3.684;2023-08-31T01:30:00;7.90;;;4.10;;
22774;SDS011;11554;51.106;3.684;2023-08-31T01:35:01;7.90;;;4.10;;
22774;SDS011;11554;51.106;3.684;2023-08-31T01:40:03;6.80;;;4.50;;
22774;SDS011;11554;51.106;3.684;2023-08-31T01:45:00;6.80;;;4.50;;
22774;SDS011;11554;51.106;3.684;2023-08-31T01:50:00;7.60;;;4.80;;
22774;SDS011;11554;51.106;3.684;2023-08-31T01:55:00;7.60;;;4.80;;
22774;SDS011;11554;51.106;3.684;2023-08-31T02:00:00;8.40;;;5.50;;
22774;SDS011;11554;51.106;3.684;2023-08-31T02:05:01;8.40;;;5.50;;
22774;SDS011;11554;51.106;3.684;2023-08-31T02:10:00;9.60;;;6.10;;
22774;SDS011;11554;51.106;3.684;2023-08-31T02:15:00;9.60;;;6.10;;
22774;SDS011;11554;51.106;3.684;2023-08-31T02:20:00;7.10;;;4.10;;
22774;SDS011;11554;51.106;3.684;2023-08-31T02:25:00;7.10;;;4.10;;
22774;SDS011;11554;51.106;3.684;2023-08-31T02:30:00;8.00;;;4.70;;
22774;SDS011;11554;51.106;3.684;2023-08-31T02:35:00;8.00;;;4.70;;
22774;SDS011;11554;51.106;3.684;2023-08-31T02:40:00;6.90;;;4.00;;
22774;SDS011;11554;51.106;3.684;2023-08-31T02:45:00;6.90;;;4.00;;
22774;SDS011;11554;51.106;3.684;2023-08-31T02:50:00;7.10;;;3.90;;
22774;SDS011;11554;51.106;3.684;2023-08-31T02:55:00;7.10;;;3.90;;
22774;SDS011;11554;51.106;3.684;2023-08-31T03:00:00;6.40;;;3.70;;
22774;SDS011;11554;51.106;3.684;2023-08-31T03:05:00;6.40;;;3.70;;
22774;SDS011;11554;51.106;3.684;2023-08-31T03:10:00;5.50;;;3.60;;
22774;SDS011;11554;51.106;3.684;2023-08-31T03:15:00;5.50;;;3.60;;
22774;SDS011;11554;51.106;3.684;2023-08-31T03:20:00;4.90;;;3.30;;
22774;SDS011;11554;51.106;3.684;2023-08-31T03:25:00;4.90;;;3.30;;
22774;SDS011;11554;51.106;3.684;2023-08-31T03:30:00;8.20;;;3.40;;
22774;SDS011;11554;51.106;3.684;2023-08-31T03:35:01;8.20;;;3.40;;
22774;SDS011;11554;51.106;3.684;2023-08-31T03:40:00;6.10;;;4.00;;
22774;SDS011;11554;51.106;3.684;2023-08-31T03:45:00;6.10;;;4.00;;
22774;SDS011;11554;51.106;3.684;2023-08-31T03:50:00;6.40;;;3.80;;
22774;SDS011;11554;51.106;3.684;2023-08-31T03:55:00;6.40;;;3.80;;
22774;SDS011;11554;51.106;3.684;2023-08-31T04:00:00;7.00;;;4.50;;
22774;SDS011;11554;51.106;3.684;2023-08-31T04:05:00;7.00;;;4.50;;
22774;SDS011;11554;51.106;3.684;2023-08-31T04:10:00;7.80;;;5.00;;
22774;SDS011;11554;51.106;3.684;2023-08-31T04:15:00;7.80;;;5.00;;
22774;SDS011;11554;51.106;3.684;2023-08-31T04:20:00;8.00;;;4.50;;
22774;SDS011;11554;51.106;3.684;2023-08-31T04:25:00;8.00;;;4.50;;
22774;SDS011;11554;51.106;3.684;2023-08-31T04:30:00;8.40;;;3.90;;
22774;SDS011;11554;51.106;3.684;2023-08-31T04:35:00;8.40;;;3.90;;
22774;SDS011;11554;51.106;3.684;2023-08-31T04:40:00;6.80;;;3.70;;
22774;SDS011;11554;51.106;3.684;2023-08-31T04:45:00;6.80;;;3.70;;
22774;SDS011;11554;51.106;3.684;2023-08-31T04:50:00;7.50;;;3.60;;
22774;SDS011;11554;51.106;3.684;2023-08-31T04:55:00;7.50;;;3.60;;
22774;SDS011;11554;51.106;3.684;2023-08-31T05:00:00;7.50;;;3.90;;
22774;SDS011;11554;51.106;3.684;2023-08-31T05:05:00;7.50;;;3.90;;
22774;SDS011;11554;51.106;3.684;2023-08-31T05:10:00;9.10;;;3.80;;
22774;SDS011;11554;51.106;3.684;2023-08-31T05:15:00;9.10;;;3.80;;
22774;SDS011;11554;51.106;3.684;2023-08-31T05:20:00;6.40;;;3.90;;
22774;SDS011;11554;51.106;3.684;2023-08-31T05:25:00;6.40;;;3.90;;
22774;SDS011;11554;51.106;3.684;2023-08-31T05:30:00;8.30;;;4.30;;
22774;SDS011;11554;51.106;3.684;2023-08-31T05:35:00;8.30;;;4.30;;
22774;SDS011;11554;51.106;3.684;2023-08-31T05:40:00;9.40;;;4.10;;
22774;SDS011;11554;51.106;3.684;2023-08-31T05:45:00;9.40;;;4.10;;
22774;SDS011;11554;51.106;3.684;2023-08-31T05:50:00;9.40;;;4.90;;
22774;SDS011;11554;51.106;3.684;2023-08-31T05:55:00;9.40;;;4.90;;
22774;SDS011;11554;51.106;3.684;2023-08-31T06:00:00;11.10;;;5.30;;
22774;SDS011;11554;51.106;3.684;2023-08-31T06:05:00;11.10;;;5.30;;
22774;SDS011;11554;51.106;3.684;2023-08-31T06:10:00;13.30;;;6.70;;
22774;SDS011;11554;51.106;3.684;2023-08-31T06:15:00;13.30;;;6.70;;
22774;SDS011;11554;51.106;3.684;2023-08-31T06:20:00;12.10;;;5.30;;
22774;SDS011;11554;51.106;3.684;2023-08-31T06:25:00;12.10;;;5.30;;
22774;SDS011;11554;51.106;3.684;2023-08-31T06:30:00;11.10;;;4.40;;
22774;SDS011;11554;51.106;3.684;2023-08-31T06:35:00;11.10;;;4.40;;
22774;SDS011;11554;51.106;3.684;2023-08-31T06:40:00;11.70;;;4.10;;
22774;SDS011;11554;51.106;3.684;2023-08-31T06:45:00;11.70;;;4.10;;
22774;SDS011;11554;51.106;3.684;2023-08-31T06:50:00;10.50;;;3.80;;
22774;SDS011;11554;51.106;3.684;2023-08-31T06:55:00;10.50;;;3.80;;
22774;SDS011;11554;51.106;3.684;2023-08-31T07:00:00;10.60;;;3.60;;
22774;SDS011;11554;51.106;3.684;2023-08-31T07:05:00;10.60;;;3.60;;
22774;SDS011;11554;51.106;3.684;2023-08-31T07:10:00;9.90;;;3.90;;
22774;SDS011;11554;51.106;3.684;2023-08-31T07:15:00;9.90;;;3.90;;
22774;SDS011;11554;51.106;3.684;2023-08-31T07:20:00;8.90;;;3.60;;
22774;SDS011;11554;51.106;3.684;2023-08-31T07:25:00;8.90;;;3.60;;
22774;SDS011;11554;51.106;3.684;2023-08-31T07:30:00;10.10;;;3.60;;
22774;SDS011;11554;51.106;3.684;2023-08-31T07:35:00;10.10;;;3.60;;
22774;SDS011;11554;51.106;3.684;2023-08-31T07:40:00;12.20;;;4.10;;
22774;SDS011;11554;51.106;3.684;2023-08-31T07:45:00;12.20;;;4.10;;
22774;SDS011;11554;51.106;3.684;2023-08-31T07:50:00;9.80;;;3.90;;
22774;SDS011;11554;51.106;3.684;2023-08-31T07:55:00;9.80;;;3.90;;
22774;SDS011;11554;51.106;3.684;2023-08-31T08:00:00;8.70;;;4.10;;
22774;SDS011;11554;51.106;3.684;2023-08-31T08:05:00;8.70;;;4.10;;
22774;SDS011;11554;51.106;3.684;2023-08-31T08:10:00;9.40;;;4.10;;
22774;SDS011;11554;51.106;3.684;2023-08-31T08:15:00;9.40;;;4.10;;
22774;SDS011;11554;51.106;3.684;2023-08-31T08:20:00;12.40;;;4.30;;
22774;SDS011;11554;51.106;3.684;2023-08-31T08:25:00;12.40;;;4.30;;
22774;SDS011;11554;51.106;3.684;2023-08-31T08:30:00;10.40;;;4.00;;
22774;SDS011;11554;51.106;3.684;2023-08-31T08:35:00;10.40;;;4.00;;
22774;SDS011;11554;51.106;3.684;2023-08-31T08:40:00;9.90;;;4.40;;
22774;SDS011;11554;51.106;3.684;2023-08-31T08:45:01;9.90;;;4.40;;
22774;SDS011;11554;51.106;3.684;2023-08-31T08:50:01;9.60;;;4.40;;
22774;SDS011;11554;51.106;3.684;2023-08-31T08:55:01;9.60;;;4.40;;
22774;SDS011;11554;51.106;3.684;2023-08-31T09:00:00;10.20;;;4.60;;
22774;SDS011;11554;51.106;3.684;2023-08-31T09:05:00;10.20;;;4.60;;
22774;SDS011;11554;51.106;3.684;2023-08-31T09:10:00;10.10;;;4.30;;
22774;SDS011;11554;51.106;3.684;2023-08-31T09:15:01;10.10;;;4.30;;
22774;SDS011;11554;51.106;3.684;2023-08-31T09:20:00;11.50;;;5.00;;
22774;SDS011;11554;51.106;3.684;2023-08-31T09:25:01;11.50;;;5.00;;
22774;SDS011;11554;51.106;3.684;2023-08-31T09:30:01;10.30;;;5.00;;
22774;SDS011;11554;51.106;3.684;2023-08-31T09:35:00;10.30;;;5.00;;
22774;SDS011;11554;51.106;3.684;2023-08-31T09:40:02;9.40;;;4.20;;
22774;SDS011;11554;51.106;3.684;2023-08-31T09:45:00;9.40;;;4.20;;
22774;SDS011;11554;51.106;3.684;2023-08-31T09:50:01;10.10;;;3.80;;
22774;SDS011;11554;51.106;3.684;2023-08-31T09:55:01;10.10;;;3.80;;
22774;SDS011;11554;51.106;3.684;2023-08-31T10:00:00;8.70;;;3.50;;
22774;SDS011;11554;51.106;3.684;2023-08-31T10:05:00;8.70;;;3.50;;
22774;SDS011;11554;51.106;3.684;2023-08-31T10:10:00;10.70;;;3.30;;
22774;SDS011;11554;51.106;3.684;2023-08-31T10:15:00;10.70;;;3.30;;
22774;SDS011;11554;51.106;3.684;2023-08-31T10:20:00;8.10;;;3.00;;
22774;SDS011;11554;51.106;3.684;2023-08-31T10:25:01;8.10;;;3.00;;
22774;SDS011;11554;51.106;3.684;2023-08-31T10:35:08;7.70;;;2.80;;
22774;SDS011;11554;51.106;3.684;2023-08-31T10:40:09;6.90;;;2.50;;
22774;SDS011;11554;51.106;3.684;2023-08-31T10:45:05;6.90;;;2.50;;
22774;SDS011;11554;51.106;3.684;2023-08-31T10:50:19;5.80;;;2.30;;
22774;SDS011;11554;51.106;3.684;2023-08-31T10:55:04;5.80;;;2.30;;
22774;SDS011;11554;51.106;3.684;2023-08-31T11:00:00;7.20;;;2.50;;
22774;SDS011;11554;51.106;3.684;2023-08-31T11:05:01;7.20;;;2.50;;
22774;SDS011;11554;51.106;3.684;2023-08-31T11:10:09;6.60;;;2.40;;
22774;SDS011;11554;51.106;3.684;2023-08-31T11:15:00;6.60;;;2.40;;
22774;SDS011;11554;51.106;3.684;2023-08-31T11:20:00;5.60;;;1.90;;
22774;SDS011;11554;51.106;3.684;2023-08-31T11:25:00;5.60;;;1.90;;
22774;SDS011;11554;51.106;3.684;2023-08-31T11:30:00;5.00;;;2.00;;
22774;SDS011;11554;51.106;3.684;2023-08-31T11:35:00;5.00;;;2.00;;
22774;SDS011;11554;51.106;3.684;2023-08-31T11:40:00;6.00;;;2.30;;
22774;SDS011;11554;51.106;3.684;2023-08-31T11:45:00;6.00;;;2.30;;
22774;SDS011;11554;51.106;3.684;2023-08-31T11:50:01;9.00;;;2.30;;
22774;SDS011;11554;51.106;3.684;2023-08-31T11:55:00;9.00;;;2.30;;
22774;SDS011;11554;51.106;3.684;2023-08-31T12:00:03;4.60;;;1.70;;
22774;SDS011;11554;51.106;3.684;2023-08-31T12:05:00;4.60;;;1.70;;
22774;SDS011;11554;51.106;3.684;2023-08-31T12:10:02;8.50;;;1.90;;
22774;SDS011;11554;51.106;3.684;2023-08-31T12:15:01;8.50;;;1.90;;
22774;SDS011;11554;51.106;3.684;2023-08-31T12:20:04;9.70;;;2.40;;
22774;SDS011;11554;51.106;3.684;2023-08-31T12:25:00;9.70;;;2.40;;
22774;SDS011;11554;51.106;3.684;2023-08-31T12:30:00;5.80;;;2.10;;
22774;SDS011;11554;51.106;3.684;2023-08-31T12:35:00;5.80;;;2.10;;
22774;SDS011;11554;51.106;3.684;2023-08-31T12:40:00;6.10;;;1.90;;
22774;SDS011;11554;51.106;3.684;2023-08-31T12:45:00;6.10;;;1.90;;
22774;SDS011;11554;51.106;3.684;2023-08-31T12:50:00;6.00;;;1.50;;
22774;SDS011;11554;51.106;3.684;2023-08-31T12:55:00;6.00;;;1.50;;
22774;SDS011;11554;51.106;3.684;2023-08-31T13:00:00;5.20;;;1.60;;
22774;SDS011;11554;51.106;3.684;2023-08-31T13:05:00;5.20;;;1.60;;
22774;SDS011;11554;51.106;3.684;2023-08-31T13:10:00;5.90;;;1.70;;
22774;SDS011;11554;51.106;3.684;2023-08-31T13:15:00;5.90;;;1.70;;
22774;SDS011;11554;51.106;3.684;2023-08-31T13:20:00;5.20;;;1.70;;
22774;SDS011;11554;51.106;3.684;2023-08-31T13:25:00;5.20;;;1.70;;
22774;SDS011;11554;51.106;3.684;2023-08-31T13:30:00;4.00;;;1.50;;
22774;SDS011;11554;51.106;3.684;2023-08-31T13:35:01;4.00;;;1.50;;
22774;SDS011;11554;51.106;3.684;2023-08-31T13:40:00;8.60;;;1.70;;
22774;SDS011;11554;51.106;3.684;2023-08-31T13:45:00;8.60;;;1.70;;
22774;SDS011;11554;51.106;3.684;2023-08-31T13:50:00;5.80;;;1.60;;
22774;SDS011;11554;51.106;3.684;2023-08-31T13:55:00;5.80;;;1.60;;
22774;SDS011;11554;51.106;3.684;2023-08-31T14:00:00;5.60;;;1.70;;
22774;SDS011;11554;51.106;3.684;2023-08-31T14:05:00;5.60;;;1.70;;
22774;SDS011;11554;51.106;3.684;2023-08-31T14:10:00;6.10;;;2.00;;
22774;SDS011;11554;51.106;3.684;2023-08-31T14:15:00;6.10;;;2.00;;
22774;SDS011;11554;51.106;3.684;2023-08-31T14:20:00;8.60;;;2.20;;
22774;SDS011;11554;51.106;3.684;2023-08-31T14:25:00;8.60;;;2.20;;
22774;SDS011;11554;51.106;3.684;2023-08-31T14:30:00;7.40;;;2.10;;
22774;SDS011;11554;51.106;3.684;2023-08-31T14:35:00;7.40;;;2.10;;
22774;SDS011;11554;51.106;3.684;2023-08-31T14:40:00;8.70;;;2.40;;
22774;SDS011;11554;51.106;3.684;2023-08-31T14:45:00;8.70;;;2.40;;
22774;SDS011;11554;51.106;3.684;2023-08-31T14:50:00;8.60;;;2.30;;
22774;SDS011;11554;51.106;3.684;2023-08-31T14:55:00;8.60;;;2.30;;
22774;SDS011;11554;51.106;3.684;2023-08-31T15:00:00;10.20;;;2.60;;
22774;SDS011;11554;51.106;3.684;2023-08-31T15:05:00;10.20;;;2.60;;
22774;SDS011;11554;51.106;3.684;2023-08-31T15:10:00;6.80;;;2.30;;
22774;SDS011;11554;51.106;3.684;2023-08-31T15:15:00;6.80;;;2.30;;
22774;SDS011;11554;51.106;3.684;2023-08-31T15:20:00;8.50;;;2.70;;
22774;SDS011;11554;51.106;3.684;2023-08-31T15:25:00;8.50;;;2.70;;
22774;SDS011;11554;51.106;3.684;2023-08-31T15:30:00;8.10;;;2.40;;
22774;SDS011;11554;51.106;3.684;2023-08-31T15:35:00;8.10;;;2.40;;
22774;SDS011;11554;51.106;3.684;2023-08-31T15:40:00;9.70;;;2.80;;
22774;SDS011;11554;51.106;3.684;2023-08-31T15:45:01;9.70;;;2.80;;
22774;SDS011;11554;51.106;3.684;2023-08-31T15:50:00;8.40;;;3.00;;
22774;SDS011;11554;51.106;3.684;2023-08-31T15:55:03;8.40;;;3.00;;
22774;SDS011;11554;51.106;3.684;2023-08-31T16:00:00;9.10;;;2.90;;
22774;SDS011;11554;51.106;3.684;2023-08-31T16:05:04;9.10;;;2.90;;
22774;SDS011;11554;51.106;3.684;2023-08-31T16:10:00;8.80;;;3.10;;
22774;SDS011;11554;51.106;3.684;2023-08-31T16:15:00;8.80;;;3.10;;
22774;SDS011;11554;51.106;3.684;2023-08-31T16:20:00;9.20;;;3.10;;
22774;SDS011;11554;51.106;3.684;2023-08-31T16:25:00;9.20;;;3.10;;
22774;SDS011;11554;51.106;3.684;2023-08-31T16:30:00;8.10;;;2.90;;
22774;SDS011;11554;51.106;3.684;2023-08-31T16:35:00;8.10;;;2.90;;
22774;SDS011;11554;51.106;3.684;2023-08-31T16:40:00;8.50;;;2.90;;
22774;SDS011;11554;51.106;3.684;2023-08-31T16:45:00;8.50;;;2.90;;
22774;SDS011;11554;51.106;3.684;2023-08-31T16:50:00;9.60;;;2.90;;
22774;SDS011;11554;51.106;3.684;2023-08-31T16:55:00;9.60;;;2.90;;
22774;SDS011;11554;51.106;3.684;2023-08-31T17:00:00;9.30;;;2.70;;
22774;SDS011;11554;51.106;3.684;2023-08-31T17:05:00;9.30;;;2.70;;
22774;SDS011;11554;51.106;3.684;2023-08-31T17:10:00;7.90;;;2.70;;
22774;SDS011;11554;51.106;3.684;2023-08-31T17:15:00;7.90;;;2.70;;
22774;SDS011;11554;51.106;3.684;2023-08-31T17:20:00;8.20;;;2.60;;
22774;SDS011;11554;51.106;3.684;2023-08-31T17:25:00;8.20;;;2.60;;
22774;SDS011;11554;51.106;3.684;2023-08-31T17:30:00;10.30;;;2.70;;
22774;SDS011;11554;51.106;3.684;2023-08-31T17:35:00;10.30;;;2.70;;
22774;SDS011;11554;51.106;3.684;2023-08-31T17:40:00;9.30;;;3.00;;
22774;SDS011;11554;51.106;3.684;2023-08-31T17:45:00;9.30;;;3.00;;
22774;SDS011;11554;51.106;3.684;2023-08-31T17:50:00;7.00;;;2.10;;
22774;SDS011;11554;51.106;3.684;2023-08-31T17:55:00;7.00;;;2.10;;
22774;SDS011;11554;51.106;3.684;2023-08-31T18:00:00;6.60;;;2.00;;
22774;SDS011;11554;51.106;3.684;2023-08-31T18:05:00;6.60;;;2.00;;
22774;SDS011;11554;51.106;3.684;2023-08-31T18:10:00;5.80;;;2.30;;
22774;SDS011;11554;51.106;3.684;2023-08-31T18:15:00;5.80;;;2.30;;
22774;SDS011;11554;51.106;3.684;2023-08-31T18:20:00;8.20;;;2.30;;
22774;SDS011;11554;51.106;3.684;2023-08-31T18:25:00;8.20;;;2.30;;
22774;SDS011;11554;51.106;3.684;2023-08-31T18:30:00;7.30;;;2.30;;
22774;SDS011;11554;51.106;3.684;2023-08-31T18:35:00;7.30;;;2.30;;
22774;SDS011;11554;51.106;3.684;2023-08-31T18:40:00;6.50;;;2.20;;
22774;SDS011;11554;51.106;3.684;2023-08-31T18:45:00;6.50;;;2.20;;
22774;SDS011;11554;51.106;3.684;2023-08-31T18:50:00;6.60;;;2.20;;
22774;SDS011;11554;51.106;3.684;2023-08-31T18:55:00;6.60;;;2.20;;
22774;SDS011;11554;51.106;3.684;2023-08-31T19:00:00;7.40;;;2.40;;
22774;SDS011;11554;51.106;3.684;2023-08-31T19:05:00;7.40;;;2.40;;
22774;SDS011;11554;51.106;3.684;2023-08-31T19:10:00;6.40;;;2.10;;
22774;SDS011;11554;51.106;3.684;2023-08-31T19:15:00;6.40;;;2.10;;
22774;SDS011;11554;51.106;3.684;2023-08-31T19:20:00;4.80;;;1.90;;
22774;SDS011;11554;51.106;3.684;2023-08-31T19:25:00;4.80;;;1.90;;
22774;SDS011;11554;51.106;3.684;2023-08-31T19:30:00;7.70;;;2.40;;
22774;SDS011;11554;51.106;3.684;2023-08-31T19:35:00;7.70;;;2.40;;
22774;SDS011;11554;51.106;3.684;2023-08-31T19:40:00;6.10;;;2.30;;
22774;SDS011;11554;51.106;3.684;2023-08-31T19:45:00;6.10;;;2.30;;
22774;SDS011;11554;51.106;3.684;2023-08-31T19:50:00;5.10;;;2.20;;
22774;SDS011;11554;51.106;3.684;2023-08-31T19:55:00;5.10;;;2.20;;
22774;SDS011;11554;51.106;3.684;2023-08-31T20:00:00;6.70;;;2.20;;
22774;SDS011;11554;51.106;3.684;2023-08-31T20:05:00;6.70;;;2.20;;
22774;SDS011;11554;51.106;3.684;2023-08-31T20:10:00;6.60;;;2.00;;
22774;SDS011;11554;51.106;3.684;2023-08-31T20:15:00;6.60;;;2.00;;
22774;SDS011;11554;51.106;3.684;2023-08-31T20:20:01;7.60;;;2.30;;
22774;SDS011;11554;51.106;3.684;2023-08-31T20:25:00;7.60;;;2.30;;
22774;SDS011;11554;51.106;3.684;2023-08-31T20:30:00;7.50;;;2.50;;
22774;SDS011;11554;51.106;3.684;2023-08-31T20:35:00;7.50;;;2.50;;
22774;SDS011;11554;51.106;3.684;2023-08-31T20:40:00;5.50;;;2.30;;
22774;SDS011;11554;51.106;3.684;2023-08-31T20:45:00;5.50;;;2.30;;
22774;SDS011;11554;51.106;3.684;2023-08-31T20:50:00;6.50;;;2.10;;
22774;SDS011;11554;51.106;3.684;2023-08-31T20:55:00;6.50;;;2.10;;
22774;SDS011;11554;51.106;3.684;2023-08-31T21:00:00;7.10;;;2.80;;
22774;SDS011;11554;51.106;3.684;2023-08-31T21:05:00;7.10;;;2.80;;
22774;SDS011;11554;51.106;3.684;2023-08-31T21:10:00;7.30;;;2.90;;
22774;SDS011;11554;51.106;3.684;2023-08-31T21:15:00;7.30;;;2.90;;
22774;SDS011;11554;51.106;3.684;2023-08-31T21:20:00;8.50;;;3.60;;
22774;SDS011;11554;51.106;3.684;2023-08-31T21:25:00;8.50;;;3.60;;
22774;SDS011;11554;51.106;3.684;2023-08-31T21:30:00;6.80;;;3.10;;
22774;SDS011;11554;51.106;3.684;2023-08-31T21:35:00;6.80;;;3.10;;
22774;SDS011;11554;51.106;3.684;2023-08-31T21:40:00;7.20;;;2.90;;
22774;SDS011;11554;51.106;3.684;2023-08-31T21:45:00;7.20;;;2.90;;
22774;SDS011;11554;51.106;3.684;2023-08-31T21:50:00;7.70;;;3.30;;
22774;SDS011;11554;51.106;3.684;2023-08-31T21:55:00;7.70;;;3.30;;
22774;SDS011;11554;51.106;3.684;2023-08-31T22:00:00;6.10;;;3.30;;
22774;SDS011;11554;51.106;3.684;2023-08-31T22:05:00;6.10;;;3.30;;
22774;SDS011;11554;51.106;3.684;2023-08-31T22:10:00;10.20;;;4.00;;
22774;SDS011;11554;51.106;3.684;2023-08-31T22:15:01;10.20;;;4.00;;
22774;SDS011;11554;51.106;3.684;2023-08-31T22:20:00;8.30;;;4.00;;
22774;SDS011;11554;51.106;3.684;2023-08-31T22:25:00;8.30;;;4.00;;
22774;SDS011;11554;51.106;3.684;2023-08-31T22:30:00;8.30;;;4.10;;
22774;SDS011;11554;51.106;3.684;2023-08-31T22:35:00;8.30;;;4.10;;
22774;SDS011;11554;51.106;3.684;2023-08-31T22:40:00;8.50;;;4.30;;
22774;SDS011;11554;51.106;3.684;2023-08-31T22:45:00;8.50;;;4.30;;
22774;SDS011;11554;51.106;3.684;2023-08-31T22:50:01;7.60;;;4.20;;
22774;SDS011;11554;51.106;3.684;2023-08-31T22:55:00;7.60;;;4.20;;
22774;SDS011;11554;51.106;3.684;2023-08-31T23:00:00;9.60;;;4.50;;
22774;SDS011;11554;51.106;3.684;2023-08-31T23:05:00;9.60;;;4.50;;
22774;SDS011;11554;51.106;3.684;2023-08-31T23:10:00;8.50;;;4.90;;
22774;SDS011;11554;51.106;3.684;2023-08-31T23:15:00;8.50;;;4.90;;
22774;SDS011;11554;51.106;3.684;2023-08-31T23:20:00;11.10;;;4.90;;
22774;SDS011;11554;51.106;3.684;2023-08-31T23:25:00;11.10;;;4.90;;
22774;SDS011;11554;51.106;3.684;2023-08-31T23:30:00;8.30;;;4.80;;
22774;SDS011;11554;51.106;3.684;2023-08-31T23:35:00;8.30;;;4.80;;
22774;SDS011;11554;51.106;3.684;2023-08-31T23:40:00;9.20;;;4.70;;
22774;SDS011;11554;51.106;3.684;2023-08-31T23:45:00;9.20;;;4.70;;
22774;SDS011;11554;51.106;3.684;2023-08-31T23:50:00;9.20;;;4.80;;
22774;SDS011;11554;51.106;3.684;2023-08-31T23:55:00;9.20;;;4.80;;
